Jessica S. Settoon — WDD9545 — position and weather

sailwx.info

Track history (hours):
 
Tides and Currents Weather Stations Pressure Air Temp Water Temp Dewpoint Dewpoint Depression Visibility Wind Speed Wind Dir Waves Ship Positions

Jessica S. Settoon

Owner: Settoon Towing LLC, Houma, LA. More information available from US FCC via Universal Licensing System and Coast Guard Vessel Documentation Center.

Last reported at 2017-Apr-29 10:29 UTC. Time now 2017-Apr-30 16:59 UTC.
Position N 29°34' W 090°29'.

Length 17 m; draft 3 m.

Type: Tug. MMSI: 367312940.

Date/timePositionNaut miles runAvg speedWind from/ knotsBaromVisibWave heightAir tempDewpointWater temp
2017-Apr-29 10:29N 29°34' W 090°29'3 6.6
2017-Apr-29 10:00N 29°34' W 090°33'3 6.3
2017-Apr-29 09:30N 29°35' W 090°36'3 6.1
2017-Apr-29 09:00N 29°36' W 090°39'3 5.5
2017-Apr-29 08:30N 29°36' W 090°43'2 3.0
2017-Apr-29 08:01N 29°35' W 090°43'0 0.2
2017-Apr-29 07:31N 29°35' W 090°43'0 0.0
2017-Apr-29 07:01N 29°35' W 090°43'1 1.6
2017-Apr-29 06:31N 29°34' W 090°43'3 6.4
2017-Apr-29 06:00N 29°32' W 090°46'  
2017-Apr-26 17:01N 29°34' W 090°57'1 6.5
2017-Apr-26 16:53N 29°34' W 090°56'4 6.6
2017-Apr-26 16:17N 29°32' W 090°52'2 6.5
2017-Apr-26 16:00N 29°32' W 090°50'3 6.8
2017-Apr-26 15:30N 29°32' W 090°46'3 5.5
2017-Apr-26 15:00N 29°34' W 090°44'1 2.1
2017-Apr-26 14:30N 29°35' W 090°43'1 0.9
2017-Apr-26 13:30N 29°34' W 090°43'1 2.6
2017-Apr-26 13:00N 29°33' W 090°42'3 6.8
2017-Apr-26 12:30N 29°29' W 090°43'3 6.8
2017-Apr-26 12:00N 29°26' W 090°43'6 0.3
2017-Apr-25 16:32N 29°25' W 090°50'0 3.3
2017-Apr-25 16:30N 29°25' W 090°50'6 1.3
2017-Apr-25 11:57N 29°24' W 090°44'3 6.3
2017-Apr-25 11:30N 29°26' W 090°43'3 7.0
2017-Apr-25 11:00N 29°30' W 090°43'3 6.7
2017-Apr-25 10:30N 29°33' W 090°42'2 4.1
2017-Apr-25 10:00N 29°34' W 090°45'3 5.7
2017-Apr-25 09:30N 29°32' W 090°47'9 1.3
2017-Apr-25 02:58N 29°34' W 090°57'3 5.4
2017-Apr-25 02:30N 29°33' W 090°54'3 5.3
2017-Apr-25 01:57N 29°32' W 090°51'2 5.2
2017-Apr-25 01:30N 29°32' W 090°49'3 5.2
2017-Apr-25 01:00N 29°32' W 090°46'2 4.3
2017-Apr-25 00:30N 29°34' W 090°44'1 2.3
2017-Apr-25 00:00N 29°35' W 090°43'0 0.0
2017-Apr-24 23:30N 29°35' W 090°43'1 2.0
2017-Apr-24 23:00N 29°34' W 090°43'2 4.3
2017-Apr-24 22:30N 29°32' W 090°42'3 5.8
2017-Apr-24 21:58N 29°29' W 090°43'  
2017-Apr-22 06:45N 29°23' W 090°44'2 6.7
2017-Apr-22 06:29N 29°24' W 090°44'3 7.4
2017-Apr-22 06:00N 29°28' W 090°43'4 7.4
2017-Apr-22 05:30N 29°31' W 090°42'3 5.5
2017-Apr-22 05:00N 29°34' W 090°43'3 6.4
2017-Apr-22 04:30N 29°32' W 090°46'  
Track history (hours):
 
Tides and Currents Weather Stations Pressure Air Temp Water Temp Dewpoint Dewpoint Depression Visibility Wind Speed Wind Dir Waves Ship Positions

Jessica S. Settoon

Owner: Settoon Towing LLC, Houma, LA. More information available from US FCC via Universal Licensing System and Coast Guard Vessel Documentation Center.

Last reported at 2017-Apr-29 10:29 UTC. Time now 2017-Apr-30 16:59 UTC.
Position N 29°34' W 090°29'.

Length 17 m; draft 3 m.

Type: Tug. MMSI: 367312940.

Date/timePositionNaut miles runAvg speedWind from/ knotsBaromVisibWave heightAir tempDewpointWater temp
2017-Apr-29 10:29N 29°34' W 090°29'3 6.6
2017-Apr-29 10:00N 29°34' W 090°33'3 6.3
2017-Apr-29 09:30N 29°35' W 090°36'3 6.1
2017-Apr-29 09:00N 29°36' W 090°39'3 5.5
2017-Apr-29 08:30N 29°36' W 090°43'2 3.0
2017-Apr-29 08:01N 29°35' W 090°43'0 0.2
2017-Apr-29 07:31N 29°35' W 090°43'0 0.0
2017-Apr-29 07:01N 29°35' W 090°43'1 1.6
2017-Apr-29 06:31N 29°34' W 090°43'3 6.4
2017-Apr-29 06:00N 29°32' W 090°46'  
2017-Apr-26 17:01N 29°34' W 090°57'1 6.5
2017-Apr-26 16:53N 29°34' W 090°56'4 6.6
2017-Apr-26 16:17N 29°32' W 090°52'2 6.5
2017-Apr-26 16:00N 29°32' W 090°50'3 6.8
2017-Apr-26 15:30N 29°32' W 090°46'3 5.5
2017-Apr-26 15:00N 29°34' W 090°44'1 2.1
2017-Apr-26 14:30N 29°35' W 090°43'1 0.9
2017-Apr-26 13:30N 29°34' W 090°43'1 2.6
2017-Apr-26 13:00N 29°33' W 090°42'3 6.8
2017-Apr-26 12:30N 29°29' W 090°43'3 6.8
2017-Apr-26 12:00N 29°26' W 090°43'6 0.3
2017-Apr-25 16:32N 29°25' W 090°50'0 3.3
2017-Apr-25 16:30N 29°25' W 090°50'6 1.3
2017-Apr-25 11:57N 29°24' W 090°44'3 6.3
2017-Apr-25 11:30N 29°26' W 090°43'3 7.0
2017-Apr-25 11:00N 29°30' W 090°43'3 6.7
2017-Apr-25 10:30N 29°33' W 090°42'2 4.1
2017-Apr-25 10:00N 29°34' W 090°45'3 5.7
2017-Apr-25 09:30N 29°32' W 090°47'9 1.3
2017-Apr-25 02:58N 29°34' W 090°57'3 5.4
2017-Apr-25 02:30N 29°33' W 090°54'3 5.3
2017-Apr-25 01:57N 29°32' W 090°51'2 5.2
2017-Apr-25 01:30N 29°32' W 090°49'3 5.2
2017-Apr-25 01:00N 29°32' W 090°46'2 4.3
2017-Apr-25 00:30N 29°34' W 090°44'1 2.3
2017-Apr-25 00:00N 29°35' W 090°43'0 0.0
2017-Apr-24 23:30N 29°35' W 090°43'1 2.0
2017-Apr-24 23:00N 29°34' W 090°43'2 4.3
2017-Apr-24 22:30N 29°32' W 090°42'3 5.8
2017-Apr-24 21:58N 29°29' W 090°43'  
2017-Apr-22 06:45N 29°23' W 090°44'2 6.7
2017-Apr-22 06:29N 29°24' W 090°44'3 7.4
2017-Apr-22 06:00N 29°28' W 090°43'4 7.4
2017-Apr-22 05:30N 29°31' W 090°42'3 5.5
2017-Apr-22 05:00N 29°34' W 090°43'3 6.4
2017-Apr-22 04:30N 29°32' W 090°46'  

Dump ship's entire track history